Terminal Aerodrome Forecast
Issued by NWS Jackson, MS

Home | Current Version | Previous Version | Text Only | Print | Product List | Glossary On
Versions: 1 2 3 4 5 6 7 8 9 10 11 12 13 14
653
FTUS44 KJAN 301600 AAB
TAFGWO
TAF AMD
KGWO 301600Z 3016/0112 13011KT 5SM TSRA BR SCT030CB SCT090 BKN110
     FM301700 22012G20KT P6SM SHRA SCT025 OVC050
     FM302100 22011KT P6SM SCT100=

USA.gov is the U.S. government's official web portal to all federal, state and local government web resources and services.